Flight Track Log - Related Links

Times and Time Zones

All times are in EDT time to prevent confusion due to time zone crossing. See the RPA4907 flight status page for this flight to view local times or setup timezone preferences in your user account.

Time Position Orientation Groundspeed Altitude Reporting Facility
EDT Latitude Longitude Course Direction KTS MPH feet Rate Location/Type
Thu 02:33:14 PM 39.1500 -76.6167 42° Northeast 210 242 2,000  Level Potomac TRACON
Thu 02:34:14 PM 39.1667 -76.5333 76° East 229 264 4,500 2,350 Climbing Potomac TRACON
Thu 02:35:00 PM 39.1500 -76.2613 90° East  Level FlightAware Approximate
Thu 02:35:14 PM 39.1667 -76.4500 90° East 252 290 6,700  Level Potomac TRACON
Thu 02:36:00 PM 39.1999 -76.1501 46° Northeast  Level FlightAware Approximate
Thu 02:36:14 PM 39.1667 -76.3500 90° East 251 289 9,000  Level Potomac TRACON
Thu 02:37:00 PM 39.2799 -76.0601 46° Northeast  Level FlightAware Approximate
Thu 02:37:09 PM 39.1833 -76.2833 72° East 256 295 10,900  Level Potomac TRACON
Thu 02:38:00 PM 39.3576 -75.9662 42° Northeast  Level FlightAware Approximate
Thu 02:38:09 PM 39.2500 -76.2000 44° Northeast 306 352 11,000  Level Potomac TRACON
Thu 02:39:49 PM 39.3500 -76.0500 49° Northeast 344 396 11,000  Level Philadelphia TRACON
Thu 02:40:49 PM 39.4167 -75.9667 44° Northeast 342 394 11,000  Level Philadelphia TRACON
Thu 02:41:49 PM 39.4667 -75.8667 57° Northeast 340 391 11,000  Level Philadelphia TRACON
Thu 02:42:49 PM 39.5167 -75.7500 61° Northeast 338 389 11,000  Level Philadelphia TRACON
Thu 02:43:49 PM 39.5667 -75.6500 57° Northeast 338 389 11,000  Level Philadelphia TRACON
Thu 02:44:49 PM 39.6167 -75.5500 57° Northeast 338 389 11,000 -50 Level Philadelphia TRACON
Thu 02:45:49 PM 39.6500 -75.4333 70° East 338 389 10,900 -500 Descending Philadelphia TRACON
Thu 02:46:49 PM 39.7000 -75.3333 57° Northeast 340 391 10,000 -429 Descending Philadelphia TRACON
Thu 02:47:55 PM 39.7500 -75.2167 61° Northeast 326 375 10,000  Level Philadelphia TRACON
Thu 02:48:55 PM 39.8000 -75.1167 57° Northeast 336 387 10,000 -250 Level Philadelphia TRACON
Thu 02:49:55 PM 39.8333 -75.0167 67° East 282 325 9,500 -750 Descending Philadelphia TRACON
Thu 02:50:55 PM 39.8833 -74.9500 46° Northeast 285 328 8,500 -762 Descending Philadelphia TRACON
Thu 02:52:01 PM 39.9500 -74.8667 44° Northeast 286 329 7,900 -714 Descending Philadelphia TRACON
Thu 02:53:01 PM 40.0000 -74.7833 52° Northeast 284 327 7,000 -474 Descending Philadelphia TRACON
Thu 02:53:55 PM 40.0500 -74.7167 46° Northeast 284 327 7,000 53 Level New York TRACON
Thu 02:54:55 PM 40.1000 -74.6500 46° Northeast 282 325 7,100  Climbing New York TRACON
Thu 02:55:55 PM 40.1500 -74.5667 52° Northeast 287 330 7,000 -50 Descending New York TRACON
Thu 02:56:55 PM 40.2333 -74.5667 360° North 280 322 7,000 -400 Level New York TRACON
Thu 02:57:55 PM 40.3167 -74.5500 North 282 325 6,200 -500 Descending New York TRACON
Thu 02:58:55 PM 40.3833 -74.5500 360° North 270 311 6,000 -48 Descending New York TRACON
Thu 03:00:01 PM 40.4667 -74.5500 360° North 274 315 6,100 50 Climbing New York TRACON
Thu 03:00:55 PM 40.5333 -74.5500 360° North 274 315 6,100 -50 Level New York TRACON
Thu 03:02:01 PM 40.6167 -74.5500 360° North 273 314 6,000 -48 Descending New York TRACON
Thu 03:03:01 PM 40.6833 -74.5833 339° North 267 307 6,000 53 Level New York TRACON
Thu 03:03:55 PM 40.7500 -74.5667 11° North 280 322 6,100  Climbing New York TRACON
Thu 03:04:55 PM 40.8167 -74.5333 21° North 282 325 6,000 -476 Descending New York TRACON
Thu 03:06:01 PM 40.9000 -74.4833 24° Northeast 281 323 5,100 -429 Descending New York TRACON
Thu 03:07:01 PM 40.9333 -74.4167 56° Northeast 279 321 5,100 -50 Level New York TRACON
Thu 03:08:01 PM 40.9167 -74.3167 102° East 272 313 5,000 -350 Descending New York TRACON
Thu 03:09:01 PM 40.9167 -74.2167 90° East 241 277 4,400 -500 Descending New York TRACON
Thu 03:10:01 PM 40.9000 -74.1500 108° East 197 227 4,000 -684 Descending New York TRACON
Thu 03:10:55 PM 40.8833 -74.0833 108° East 198 228 3,100 -789 Descending New York TRACON
Thu 03:11:55 PM 40.8333 -74.0667 166° South 171 197 2,500 -600 Descending New York TRACON

Login

Don't have an account? Register now (free) for customized features, flight alerts, and more!